createdAt,value
2022-12-14T00:00:58.340Z,40.65
2022-12-14T00:03:24.846Z,42.10
2022-12-14T00:05:51.270Z,38.92
2022-12-14T00:08:18.027Z,43.28
2022-12-14T00:10:44.582Z,44.38
2022-12-14T00:13:13.156Z,50.25
2022-12-14T00:15:39.557Z,45.85
2022-12-14T00:18:06.371Z,52.10
2022-12-14T00:20:33.099Z,50.55
2022-12-14T00:22:59.543Z,48.70
2022-12-14T00:25:26.018Z,51.40
2022-12-14T00:27:52.450Z,49.88
2022-12-14T00:30:19.971Z,48.17
2022-12-14T00:32:46.972Z,44.00
2022-12-14T00:35:15.668Z,49.13
2022-12-14T00:37:42.053Z,49.97
2022-12-14T00:40:09.031Z,46.00
2022-12-14T00:42:35.508Z,49.40
2022-12-14T00:45:02.307Z,48.25
2022-12-14T00:47:28.721Z,57.05
2022-12-14T00:49:55.224Z,48.30
2022-12-14T00:52:21.626Z,53.17
2022-12-14T00:54:48.041Z,45.05
2022-12-14T00:57:14.447Z,44.22
2022-12-14T00:59:40.842Z,52.95
2022-12-14T01:02:07.432Z,41.83
2022-12-14T01:04:33.910Z,46.97
2022-12-14T01:07:00.278Z,46.60
2022-12-14T01:09:26.733Z,44.03
2022-12-14T01:11:53.525Z,47.42
2022-12-14T01:14:20.896Z,50.13
2022-12-14T01:16:47.651Z,48.10
2022-12-14T01:19:14.551Z,59.58
2022-12-14T01:21:41.052Z,56.10
2022-12-14T01:24:08.691Z,77.03
2022-12-14T01:26:39.462Z,50.20
2022-12-14T01:29:06.233Z,45.17
2022-12-14T01:31:34.324Z,75.40
2022-12-14T01:36:28.393Z,46.03
2022-12-14T01:38:59.171Z,44.22
2022-12-14T01:41:30.002Z,50.20
2022-12-14T01:43:57.525Z,53.10
2022-12-14T01:46:26.781Z,51.03
2022-12-14T01:48:56.086Z,60.40
2022-12-14T01:51:23.439Z,47.03
2022-12-14T01:53:50.029Z,44.75
2022-12-14T01:56:16.859Z,42.55
2022-12-14T01:58:43.256Z,45.47
2022-12-14T02:01:11.412Z,51.22
2022-12-14T02:03:40.947Z,46.97
2022-12-14T02:06:09.501Z,40.65
2022-12-14T02:08:36.747Z,66.20
2022-12-14T02:11:03.294Z,53.37
2022-12-14T02:13:34.187Z,45.83
2022-12-14T02:16:00.930Z,135.00
2022-12-14T02:18:28.952Z,88.70
2022-12-14T02:21:13.923Z,43.53
2022-12-14T02:23:53.274Z,60.95
2022-12-14T02:26:38.251Z,48.90
2022-12-14T02:29:22.612Z,41.90
2022-12-14T02:32:07.530Z,39.95
2022-12-14T02:34:36.879Z,38.03
2022-12-14T02:37:06.334Z,39.95
2022-12-14T02:39:48.046Z,41.70
2022-12-14T02:42:15.492Z,39.97
2022-12-14T02:44:51.226Z,40.22
2022-12-14T02:47:29.472Z,38.10
2022-12-14T02:50:07.752Z,38.72
2022-12-14T02:52:34.099Z,40.15
2022-12-14T02:55:06.736Z,37.17
2022-12-14T02:57:45.764Z,38.55
2022-12-14T03:00:12.678Z,39.97
2022-12-14T03:02:40.497Z,41.05
2022-12-14T03:07:38.217Z,37.65
2022-12-14T03:10:24.846Z,41.13
2022-12-14T03:12:55.375Z,39.13
2022-12-14T03:15:23.493Z,39.63
2022-12-14T03:20:20.601Z,42.17
2022-12-14T03:23:07.855Z,38.80
2022-12-14T03:25:44.996Z,39.38
2022-12-14T03:28:15.571Z,38.00
2022-12-14T03:31:00.315Z,37.75
2022-12-14T03:33:29.126Z,34.28
2022-12-14T03:35:58.448Z,37.53
2022-12-14T03:38:36.137Z,35.88
2022-12-14T03:41:08.275Z,33.38
2022-12-14T03:43:42.229Z,35.53
2022-12-14T03:46:23.616Z,35.75
2022-12-14T03:48:55.508Z,37.03
2022-12-14T03:51:30.159Z,37.67
2022-12-14T03:54:08.567Z,36.58
2022-12-14T03:56:34.910Z,39.40
2022-12-14T03:59:01.240Z,35.53
2022-12-14T04:01:40.107Z,36.20
2022-12-14T04:04:06.495Z,33.75
2022-12-14T04:06:46.488Z,36.63
2022-12-14T04:09:18.676Z,37.92
2022-12-14T04:12:07.752Z,32.72
2022-12-14T04:14:55.030Z,38.28
2022-12-14T04:17:43.968Z,37.15
2022-12-14T04:20:13.597Z,36.05
2022-12-14T04:22:43.396Z,37.33
2022-12-14T04:25:31.547Z,36.55
2022-12-14T04:28:01.544Z,39.38
2022-12-14T04:30:29.379Z,38.80
2022-12-14T04:32:57.259Z,37.13
2022-12-14T04:35:25.795Z,37.20
2022-12-14T04:37:57.495Z,36.58
2022-12-14T04:40:27.152Z,38.20
2022-12-14T04:43:00.703Z,37.90
2022-12-14T04:45:49.028Z,35.97
2022-12-14T04:48:18.548Z,38.35
2022-12-14T04:50:46.139Z,37.15
2022-12-14T04:53:26.207Z,36.83
2022-12-14T04:56:18.903Z,35.83
2022-12-14T04:58:45.327Z,37.67
2022-12-14T05:01:11.730Z,36.95
2022-12-14T05:03:44.887Z,39.53
2022-12-14T05:06:24.671Z,37.58
2022-12-14T05:09:11.209Z,39.55
2022-12-14T05:11:53.721Z,38.75
2022-12-14T05:14:31.830Z,39.80
2022-12-14T05:16:59.704Z,41.13
2022-12-14T05:19:28.759Z,39.72
2022-12-14T05:21:55.423Z,36.90
2022-12-14T05:24:21.852Z,38.35
2022-12-14T05:26:48.244Z,37.97
2022-12-14T05:29:15.172Z,37.45
2022-12-14T05:31:41.590Z,39.17
2022-12-14T05:34:07.984Z,40.58
2022-12-14T05:36:34.368Z,39.50
2022-12-14T05:39:00.958Z,36.80
2022-12-14T05:41:27.304Z,37.95
2022-12-14T05:43:53.657Z,40.17
2022-12-14T05:46:20.141Z,41.72
2022-12-14T05:48:49.328Z,40.05
2022-12-14T05:51:16.361Z,44.47
2022-12-14T05:53:42.884Z,40.38
2022-12-14T05:56:10.439Z,40.88
2022-12-14T05:58:37.194Z,43.58
2022-12-14T06:01:04.743Z,42.78
2022-12-14T06:03:31.284Z,38.17
2022-12-14T06:06:02.016Z,40.90
2022-12-14T06:08:30.939Z,41.28
2022-12-14T06:11:08.583Z,41.70
2022-12-14T06:13:35.877Z,40.28
2022-12-14T06:16:08.306Z,38.80
2022-12-14T06:18:34.828Z,42.95
2022-12-14T06:21:01.288Z,38.53
2022-12-14T06:23:28.207Z,38.88
2022-12-14T06:25:55.590Z,38.65
2022-12-14T06:28:22.683Z,39.43
2022-12-14T06:30:49.147Z,40.45
2022-12-14T06:33:15.605Z,38.67
2022-12-14T06:35:45.386Z,38.33
2022-12-14T06:38:12.323Z,40.15
2022-12-14T06:40:38.696Z,38.42
2022-12-14T06:43:05.088Z,38.50
2022-12-14T06:45:31.560Z,40.47
2022-12-14T06:47:58.513Z,40.15
2022-12-14T06:50:25.798Z,39.20
2022-12-14T06:52:52.146Z,41.78
2022-12-14T06:55:18.596Z,42.13
2022-12-14T06:57:44.934Z,40.20
2022-12-14T07:00:14.284Z,40.22
2022-12-14T07:02:40.791Z,38.33
2022-12-14T07:05:07.262Z,37.00
2022-12-14T07:07:33.727Z,39.78
2022-12-14T07:10:00.444Z,36.70
2022-12-14T07:12:27.989Z,38.58
2022-12-14T07:14:54.592Z,36.33
2022-12-14T07:17:21.579Z,35.90
2022-12-14T07:19:49.151Z,36.30
2022-12-14T07:22:15.665Z,38.70
2022-12-14T07:24:42.047Z,35.80
2022-12-14T07:27:08.412Z,39.33
2022-12-14T07:29:35.150Z,36.75
2022-12-14T07:32:01.671Z,34.35
2022-12-14T07:34:28.191Z,37.33
2022-12-14T07:36:54.779Z,35.65
2022-12-14T07:39:21.667Z,34.28
2022-12-14T07:41:48.994Z,36.40
2022-12-14T07:44:15.527Z,33.40
2022-12-14T07:46:42.293Z,35.95
2022-12-14T07:49:09.269Z,34.25
2022-12-14T07:51:37.316Z,39.17
2022-12-14T07:56:31.756Z,28.70
2022-12-14T07:58:59.107Z,34.80
2022-12-14T08:04:47.546Z,29.92
2022-12-14T08:07:13.918Z,32.50
2022-12-14T08:09:40.271Z,30.73
2022-12-14T08:12:06.670Z,40.72
2022-12-14T08:14:33.044Z,32.67
2022-12-14T08:16:59.383Z,32.60
2022-12-14T08:19:25.874Z,36.42
2022-12-14T08:21:52.307Z,32.95
2022-12-14T08:24:18.681Z,30.20
2022-12-14T08:26:47.256Z,29.50
2022-12-14T08:29:15.799Z,33.42
2022-12-14T08:31:42.509Z,30.23
2022-12-14T08:34:09.788Z,31.80
2022-12-14T08:36:36.151Z,35.33
2022-12-14T08:39:04.527Z,40.92
2022-12-14T08:41:31.152Z,34.92
2022-12-14T08:43:58.673Z,31.40
2022-12-14T08:46:25.847Z,32.75
2022-12-14T08:48:52.944Z,33.47
2022-12-14T08:51:19.726Z,30.48
2022-12-14T08:53:47.860Z,28.13
2022-12-14T08:58:40.886Z,29.65
2022-12-14T09:01:15.205Z,31.67
2022-12-14T09:03:42.820Z,32.15
2022-12-14T09:06:10.534Z,30.65
2022-12-14T09:08:37.358Z,31.20
2022-12-14T09:11:04.895Z,29.40
2022-12-14T09:13:32.043Z,28.35
2022-12-14T09:16:08.749Z,27.10
2022-12-14T09:18:35.260Z,28.08
2022-12-14T09:21:02.176Z,28.60
2022-12-14T09:23:30.280Z,29.13
2022-12-14T09:26:06.236Z,28.55
2022-12-14T09:28:33.746Z,27.27
2022-12-14T09:31:04.567Z,26.80
2022-12-14T09:33:32.045Z,27.45
2022-12-14T09:36:05.988Z,34.30
2022-12-14T09:38:33.682Z,29.98
2022-12-14T09:41:05.902Z,33.45
2022-12-14T09:43:36.923Z,30.85
2022-12-14T09:46:15.662Z,28.52
2022-12-14T09:48:42.393Z,29.58
2022-12-14T09:51:13.398Z,23.75
2022-12-14T09:53:42.095Z,26.02
2022-12-14T09:56:11.064Z,26.58
2022-12-14T09:58:38.370Z,24.08
2022-12-14T10:01:14.138Z,22.27
2022-12-14T10:03:41.434Z,26.92
2022-12-14T10:06:26.905Z,27.33
2022-12-14T10:09:03.769Z,27.88
2022-12-14T10:11:40.604Z,25.35
2022-12-14T10:14:25.467Z,26.40
2022-12-14T10:17:04.221Z,25.92
2022-12-14T10:19:49.191Z,28.42
2022-12-14T10:22:18.485Z,28.70
2022-12-14T10:24:50.219Z,29.20
2022-12-14T10:27:27.248Z,32.67
2022-12-14T10:29:59.684Z,30.97
2022-12-14T10:32:33.152Z,29.30
2022-12-14T10:35:01.475Z,25.27
2022-12-14T10:37:27.938Z,24.52
2022-12-14T10:40:14.613Z,24.15
2022-12-14T10:42:52.434Z,25.00
2022-12-14T10:45:41.050Z,23.77
2022-12-14T10:50:43.434Z,21.65
2022-12-14T10:53:19.455Z,24.10
2022-12-14T10:55:46.387Z,20.60
2022-12-14T10:58:12.748Z,25.52
2022-12-14T11:00:39.191Z,24.95
2022-12-14T11:03:12.231Z,24.52
2022-12-14T11:05:41.128Z,23.83
2022-12-14T11:08:08.074Z,22.10
2022-12-14T11:10:36.240Z,25.13
2022-12-14T11:13:04.327Z,24.70
2022-12-14T11:18:20.839Z,21.42
2022-12-14T11:20:51.480Z,24.92
2022-12-14T11:23:20.842Z,24.00
2022-12-14T11:25:48.324Z,24.92
2022-12-14T11:28:20.635Z,24.80
2022-12-14T11:31:03.096Z,28.30
2022-12-14T11:33:40.940Z,23.35
2022-12-14T11:36:08.352Z,23.58
2022-12-14T11:38:35.000Z,24.75
2022-12-14T11:41:08.874Z,24.92
2022-12-14T11:43:41.142Z,25.17
2022-12-14T11:46:07.810Z,24.98
2022-12-14T11:48:38.417Z,25.45
2022-12-14T11:51:12.092Z,28.63
2022-12-14T11:53:38.633Z,23.55
2022-12-14T11:56:06.908Z,24.70
2022-12-14T11:58:46.888Z,26.75
2022-12-14T12:01:15.117Z,26.10
2022-12-14T12:03:44.058Z,24.55
2022-12-14T12:06:11.527Z,27.52
2022-12-14T12:08:39.134Z,27.00
2022-12-14T12:11:14.314Z,28.38
2022-12-14T12:13:41.670Z,32.22
2022-12-14T12:16:11.705Z,32.70
2022-12-14T12:18:46.431Z,33.95
2022-12-14T12:21:18.367Z,34.70
2022-12-14T12:24:03.729Z,33.15
2022-12-14T12:26:50.053Z,36.50
2022-12-14T12:29:26.021Z,34.55
2022-12-14T12:32:06.245Z,35.33
2022-12-14T12:34:32.653Z,33.35
2022-12-14T12:37:25.725Z,34.33
2022-12-14T12:39:52.762Z,33.42
2022-12-14T12:42:34.238Z,35.88
2022-12-14T12:45:23.032Z,35.35
2022-12-14T12:48:12.514Z,36.38
2022-12-14T12:50:49.954Z,36.90
2022-12-14T12:53:18.813Z,36.72
2022-12-14T12:55:47.465Z,37.65
2022-12-14T12:58:24.930Z,40.65
2022-12-14T13:00:55.512Z,42.22
2022-12-14T13:03:21.949Z,38.97
2022-12-14T13:05:49.292Z,40.88
2022-12-14T13:08:22.365Z,43.40
2022-12-14T13:13:38.275Z,42.63
2022-12-14T13:16:27.599Z,44.60
2022-12-14T13:19:04.936Z,46.58
2022-12-14T13:21:43.948Z,47.35
2022-12-14T13:24:17.679Z,47.35
2022-12-14T13:29:32.212Z,46.92
2022-12-14T13:32:04.820Z,46.47
2022-12-14T13:34:49.313Z,42.22
2022-12-14T13:37:24.666Z,39.25
2022-12-14T13:40:09.847Z,41.25
2022-12-14T13:42:52.438Z,38.83
2022-12-14T13:45:23.360Z,37.83
2022-12-14T13:47:53.968Z,36.40
2022-12-14T13:50:37.188Z,36.42
2022-12-14T13:53:14.805Z,36.25
2022-12-14T13:55:55.526Z,37.95
2022-12-14T13:58:26.909Z,71.13
2022-12-14T14:01:04.293Z,87.13
2022-12-14T14:03:37.337Z,117.72
2022-12-14T14:06:09.957Z,64.90
2022-12-14T14:08:41.672Z,58.28
2022-12-14T14:11:39.663Z,35.05
2022-12-14T14:14:26.645Z,31.05
2022-12-14T14:17:16.168Z,27.85
2022-12-14T14:19:42.660Z,27.50
2022-12-14T14:22:23.244Z,28.33
2022-12-14T14:25:01.275Z,26.40
2022-12-14T14:27:30.521Z,28.25
2022-12-14T14:29:57.957Z,25.50
2022-12-14T14:32:24.349Z,26.63
2022-12-14T14:34:51.097Z,32.08
2022-12-14T14:37:20.427Z,31.05
2022-12-14T14:40:20.361Z,27.63
2022-12-14T14:42:50.150Z,29.63
2022-12-14T14:45:25.493Z,30.95
2022-12-14T14:47:56.527Z,28.10
2022-12-14T14:50:29.315Z,30.27
2022-12-14T14:52:57.856Z,35.55
2022-12-14T14:55:52.476Z,58.80
2022-12-14T14:58:22.672Z,72.82
2022-12-14T15:00:58.124Z,36.30
2022-12-14T15:03:39.963Z,47.55
2022-12-14T15:06:11.596Z,47.72
2022-12-14T15:08:39.431Z,50.40
2022-12-14T15:11:11.572Z,41.22
2022-12-14T15:13:51.503Z,63.75
2022-12-14T15:16:22.845Z,47.08
2022-12-14T15:18:49.329Z,47.75
2022-12-14T15:21:16.528Z,60.80
2022-12-14T15:23:49.590Z,82.60
2022-12-14T15:26:19.732Z,46.65
2022-12-14T15:28:47.110Z,52.97
2022-12-14T15:31:13.798Z,52.38
2022-12-14T15:33:41.993Z,51.05
2022-12-14T15:36:12.053Z,41.40
2022-12-14T15:38:38.500Z,60.78
2022-12-14T15:41:06.387Z,64.40
2022-12-14T15:43:33.924Z,63.85
2022-12-14T15:46:04.462Z,42.65
2022-12-14T15:48:34.381Z,53.38
2022-12-14T15:51:05.632Z,45.22
2022-12-14T15:53:32.910Z,40.80
2022-12-14T15:56:05.375Z,35.30
2022-12-14T15:58:35.663Z,38.25
2022-12-14T16:01:09.540Z,34.47
2022-12-14T16:03:38.029Z,27.80
2022-12-14T16:06:05.525Z,35.65
2022-12-14T16:08:33.489Z,31.60
2022-12-14T16:11:02.204Z,29.67
2022-12-14T16:13:30.926Z,40.67
2022-12-14T16:15:58.380Z,31.75
2022-12-14T16:18:25.005Z,33.97
2022-12-14T16:20:59.129Z,35.60
2022-12-14T16:23:33.717Z,32.55
2022-12-14T16:26:02.830Z,40.33
2022-12-14T16:28:29.241Z,26.88
2022-12-14T16:31:05.948Z,26.48
2022-12-14T16:33:36.320Z,35.95
2022-12-14T16:36:04.360Z,33.60
2022-12-14T16:40:59.291Z,31.63
2022-12-14T16:43:25.824Z,31.02
2022-12-14T16:45:55.168Z,26.05
2022-12-14T16:48:23.401Z,29.83
2022-12-14T16:51:01.256Z,28.63
2022-12-14T16:53:34.801Z,30.90
2022-12-14T16:56:21.599Z,27.40
2022-12-14T16:58:59.081Z,100.60
2022-12-14T17:01:26.268Z,36.05
2022-12-14T17:04:04.018Z,31.00
2022-12-14T17:06:36.216Z,32.90
2022-12-14T17:09:03.609Z,40.03
2022-12-14T17:11:30.041Z,35.00
2022-12-14T17:13:56.473Z,34.50
2022-12-14T17:16:23.083Z,34.22
2022-12-14T17:18:49.723Z,36.72
2022-12-14T17:21:22.344Z,39.80
2022-12-14T17:23:48.934Z,37.10
2022-12-14T17:26:24.007Z,33.72
2022-12-14T17:28:50.842Z,35.47
2022-12-14T17:31:19.180Z,32.63
2022-12-14T17:33:45.838Z,32.70
2022-12-14T17:36:12.473Z,34.72
2022-12-14T17:38:38.995Z,40.05
2022-12-14T17:41:05.783Z,35.15
2022-12-14T17:43:32.515Z,36.30
2022-12-14T17:46:03.316Z,37.58
2022-12-14T17:48:30.006Z,32.55
2022-12-14T17:50:56.491Z,33.60
2022-12-14T17:53:29.226Z,32.05
2022-12-14T17:55:56.033Z,34.40
2022-12-14T17:58:22.871Z,40.35
2022-12-14T18:01:01.626Z,30.17
2022-12-14T18:03:32.590Z,38.55
2022-12-14T18:05:59.736Z,37.33
2022-12-14T18:08:26.843Z,33.92
2022-12-14T18:11:07.579Z,35.20
2022-12-14T18:13:38.448Z,30.17
2022-12-14T18:16:05.024Z,29.77
2022-12-14T18:18:31.458Z,32.70
2022-12-14T18:21:00.359Z,30.02
2022-12-14T18:23:27.717Z,29.23
2022-12-14T18:25:56.023Z,29.25
2022-12-14T18:30:51.161Z,40.55
2022-12-14T18:33:22.041Z,34.92
2022-12-14T18:35:49.610Z,37.72
2022-12-14T18:38:16.163Z,41.88
2022-12-14T18:40:43.431Z,50.80
2022-12-14T18:43:17.782Z,47.15
2022-12-14T18:45:44.247Z,39.97
2022-12-14T18:48:10.814Z,34.53
2022-12-14T18:50:42.532Z,35.13
2022-12-14T18:53:13.851Z,37.40
2022-12-14T18:55:41.040Z,41.40
2022-12-14T18:58:07.454Z,37.97
2022-12-14T19:00:35.158Z,39.58
2022-12-14T19:03:03.589Z,37.40
2022-12-14T19:05:30.444Z,38.10
2022-12-14T19:07:57.605Z,42.10
2022-12-14T19:10:25.922Z,38.55
2022-12-14T19:12:52.335Z,39.53
2022-12-14T19:15:20.607Z,37.63
2022-12-14T19:17:47.283Z,42.10
2022-12-14T19:20:14.619Z,41.28
2022-12-14T19:22:41.605Z,39.53
2022-12-14T19:25:08.577Z,37.63
2022-12-14T19:28:15.108Z,35.97
2022-12-14T19:30:25.407Z,34.50
2022-12-14T19:32:52.496Z,37.15
2022-12-14T19:35:19.721Z,47.92
2022-12-14T19:37:46.541Z,79.28
2022-12-14T19:40:14.028Z,54.67
2022-12-14T19:42:40.609Z,39.25
2022-12-14T19:45:08.106Z,56.90
2022-12-14T19:47:34.509Z,38.63
2022-12-14T19:50:00.951Z,56.95
2022-12-14T19:52:27.544Z,38.17
2022-12-14T19:54:53.980Z,37.20
2022-12-14T19:57:20.530Z,38.97
2022-12-14T19:59:46.918Z,37.83
2022-12-14T20:02:14.079Z,35.35
2022-12-14T20:04:40.924Z,39.78
2022-12-14T20:07:07.872Z,35.35
2022-12-14T20:09:34.816Z,37.70
2022-12-14T20:12:01.318Z,35.70
2022-12-14T20:14:27.756Z,36.08
2022-12-14T20:16:54.630Z,39.60
2022-12-14T20:19:22.018Z,36.58
2022-12-14T20:21:48.394Z,43.70
2022-12-14T20:24:14.995Z,38.72
2022-12-14T20:26:41.484Z,41.72
2022-12-14T20:29:07.933Z,42.28
2022-12-14T20:31:35.198Z,37.72
2022-12-14T20:34:03.060Z,44.70
2022-12-14T20:36:30.282Z,41.92
2022-12-14T20:39:03.374Z,46.33
2022-12-14T20:41:30.211Z,39.30
2022-12-14T20:43:56.550Z,34.97
2022-12-14T20:46:29.169Z,45.28
2022-12-14T20:48:56.620Z,37.90
2022-12-14T20:51:23.424Z,35.88
2022-12-14T20:53:49.955Z,35.30
2022-12-14T20:56:16.409Z,37.60
2022-12-14T20:58:47.128Z,30.10
2022-12-14T21:01:13.711Z,35.10
2022-12-14T21:03:40.570Z,35.40
2022-12-14T21:06:07.272Z,29.55
2022-12-14T21:08:53.792Z,38.25
2022-12-14T21:11:38.728Z,33.17
2022-12-14T21:14:05.127Z,32.25
2022-12-14T21:16:31.671Z,32.45
2022-12-14T21:18:58.068Z,30.27
2022-12-14T21:21:24.461Z,33.03
2022-12-14T21:23:51.059Z,32.25
2022-12-14T21:26:17.415Z,29.02
2022-12-14T21:28:43.807Z,31.02
2022-12-14T21:31:15.945Z,32.58
2022-12-14T21:33:48.009Z,28.27
2022-12-14T21:36:16.091Z,31.77
2022-12-14T21:42:10.446Z,43.33
2022-12-14T21:44:37.479Z,37.80
2022-12-14T21:47:05.339Z,39.08
2022-12-14T21:49:31.712Z,38.05
2022-12-14T21:51:58.491Z,37.33
2022-12-14T21:54:25.590Z,35.20
2022-12-14T21:57:10.714Z,41.25
2022-12-14T22:06:31.476Z,50.85
2022-12-14T22:08:58.936Z,47.08
2022-12-14T22:11:25.343Z,44.35
2022-12-14T22:13:51.755Z,43.42
2022-12-14T22:16:18.198Z,43.67
2022-12-14T22:18:44.581Z,42.97
2022-12-14T22:21:10.950Z,43.63
2022-12-14T22:23:43.168Z,42.95
2022-12-14T22:26:10.079Z,43.95
2022-12-14T22:28:36.483Z,41.90
2022-12-14T22:31:03.562Z,39.58
2022-12-14T22:33:31.062Z,43.92
2022-12-14T22:35:58.398Z,43.17
2022-12-14T22:38:25.149Z,39.20
2022-12-14T22:40:51.618Z,43.50
2022-12-14T22:43:19.891Z,42.75
2022-12-14T22:45:48.244Z,44.13
2022-12-14T22:48:14.698Z,46.92
2022-12-14T22:50:41.136Z,48.75
2022-12-14T22:53:07.484Z,39.60
2022-12-14T22:55:35.810Z,41.05
2022-12-14T22:58:02.365Z,40.92
2022-12-14T23:00:28.766Z,40.50
2022-12-14T23:02:55.270Z,36.65
2022-12-14T23:05:21.737Z,35.92
2022-12-14T23:07:48.097Z,34.08
2022-12-14T23:10:33.047Z,33.05
2022-12-14T23:13:17.834Z,39.85
2022-12-14T23:16:02.678Z,34.42
2022-12-14T23:18:47.479Z,38.90
2022-12-14T23:21:32.295Z,36.20
2022-12-14T23:24:17.535Z,38.55
2022-12-14T23:27:08.790Z,35.03
2022-12-14T23:29:54.611Z,31.38
2022-12-14T23:32:39.386Z,33.20
2022-12-14T23:35:24.703Z,31.65
2022-12-14T23:38:09.458Z,31.60
2022-12-14T23:40:54.331Z,35.25
2022-12-14T23:43:39.174Z,33.63
2022-12-14T23:46:24.191Z,30.77
2022-12-14T23:49:15.397Z,33.20
2022-12-14T23:52:00.731Z,39.45
2022-12-14T23:54:45.652Z,44.08
2022-12-14T23:57:30.681Z,35.42
